sensor_id;sensor_type;location;lat;lon;timestamp;P1;durP1;ratioP1;P2;durP2;ratioP2
13943;SDS011;7044;53.286;8.534;2023-01-08T00:00:04;2.92;;;2.40;;
13943;SDS011;7044;53.286;8.534;2023-01-08T00:02:33;3.50;;;2.55;;
13943;SDS011;7044;53.286;8.534;2023-01-08T00:04:59;4.38;;;2.58;;
13943;SDS011;7044;53.286;8.534;2023-01-08T00:07:26;3.33;;;2.65;;
13943;SDS011;7044;53.286;8.534;2023-01-08T00:09:53;2.60;;;2.40;;
13943;SDS011;7044;53.286;8.534;2023-01-08T00:12:20;2.72;;;2.22;;
13943;SDS011;7044;53.286;8.534;2023-01-08T00:14:48;4.15;;;2.40;;
13943;SDS011;7044;53.286;8.534;2023-01-08T00:17:15;2.28;;;2.08;;
13943;SDS011;7044;53.286;8.534;2023-01-08T00:19:42;3.97;;;2.60;;
13943;SDS011;7044;53.286;8.534;2023-01-08T00:22:09;5.05;;;2.30;;
13943;SDS011;7044;53.286;8.534;2023-01-08T00:24:35;2.83;;;2.40;;
13943;SDS011;7044;53.286;8.534;2023-01-08T00:27:04;3.47;;;2.37;;
13943;SDS011;7044;53.286;8.534;2023-01-08T00:29:31;3.25;;;2.45;;
13943;SDS011;7044;53.286;8.534;2023-01-08T00:31:59;5.40;;;2.28;;
13943;SDS011;7044;53.286;8.534;2023-01-08T00:34:26;3.15;;;2.40;;
13943;SDS011;7044;53.286;8.534;2023-01-08T00:36:53;5.07;;;2.63;;
13943;SDS011;7044;53.286;8.534;2023-01-08T00:39:20;3.15;;;2.50;;
13943;SDS011;7044;53.286;8.534;2023-01-08T00:41:47;2.63;;;2.42;;
13943;SDS011;7044;53.286;8.534;2023-01-08T00:44:14;5.03;;;2.90;;
13943;SDS011;7044;53.286;8.534;2023-01-08T00:46:41;2.53;;;2.28;;
13943;SDS011;7044;53.286;8.534;2023-01-08T00:49:09;3.50;;;2.78;;
13943;SDS011;7044;53.286;8.534;2023-01-08T00:51:36;4.00;;;2.55;;
13943;SDS011;7044;53.286;8.534;2023-01-08T00:54:02;3.40;;;2.58;;
13943;SDS011;7044;53.286;8.534;2023-01-08T00:56:29;3.03;;;2.40;;
13943;SDS011;7044;53.286;8.534;2023-01-08T00:58:56;5.10;;;2.80;;
13943;SDS011;7044;53.286;8.534;2023-01-08T01:01:23;2.90;;;2.60;;
13943;SDS011;7044;53.286;8.534;2023-01-08T01:03:50;5.28;;;2.95;;
13943;SDS011;7044;53.286;8.534;2023-01-08T01:06:18;3.85;;;2.42;;
13943;SDS011;7044;53.286;8.534;2023-01-08T01:08:45;3.45;;;2.75;;
13943;SDS011;7044;53.286;8.534;2023-01-08T01:11:15;3.78;;;2.60;;
13943;SDS011;7044;53.286;8.534;2023-01-08T01:13:45;3.83;;;2.83;;
13943;SDS011;7044;53.286;8.534;2023-01-08T01:16:12;3.08;;;2.75;;
13943;SDS011;7044;53.286;8.534;2023-01-08T01:18:39;7.00;;;2.47;;
13943;SDS011;7044;53.286;8.534;2023-01-08T01:21:09;4.65;;;2.90;;
13943;SDS011;7044;53.286;8.534;2023-01-08T01:23:39;4.57;;;2.90;;
13943;SDS011;7044;53.286;8.534;2023-01-08T01:26:12;4.63;;;2.88;;
13943;SDS011;7044;53.286;8.534;2023-01-08T01:28:40;4.70;;;2.70;;
13943;SDS011;7044;53.286;8.534;2023-01-08T01:31:07;3.15;;;2.35;;
13943;SDS011;7044;53.286;8.534;2023-01-08T01:33:37;4.07;;;2.75;;
13943;SDS011;7044;53.286;8.534;2023-01-08T01:36:04;3.28;;;2.80;;
13943;SDS011;7044;53.286;8.534;2023-01-08T01:38:32;3.45;;;2.90;;
13943;SDS011;7044;53.286;8.534;2023-01-08T01:41:00;7.45;;;2.95;;
13943;SDS011;7044;53.286;8.534;2023-01-08T01:43:34;4.00;;;2.60;;
13943;SDS011;7044;53.286;8.534;2023-01-08T01:46:02;2.85;;;2.63;;
13943;SDS011;7044;53.286;8.534;2023-01-08T01:48:31;3.80;;;3.00;;
13943;SDS011;7044;53.286;8.534;2023-01-08T01:50:59;3.72;;;2.80;;
13943;SDS011;7044;53.286;8.534;2023-01-08T01:53:26;3.90;;;2.65;;
13943;SDS011;7044;53.286;8.534;2023-01-08T01:55:57;4.57;;;2.83;;
13943;SDS011;7044;53.286;8.534;2023-01-08T01:58:26;2.58;;;2.38;;
13943;SDS011;7044;53.286;8.534;2023-01-08T02:00:55;3.88;;;2.88;;
13943;SDS011;7044;53.286;8.534;2023-01-08T02:03:24;3.38;;;2.60;;
13943;SDS011;7044;53.286;8.534;2023-01-08T02:05:55;4.13;;;2.90;;
13943;SDS011;7044;53.286;8.534;2023-01-08T02:08:30;3.58;;;2.70;;
13943;SDS011;7044;53.286;8.534;2023-01-08T02:11:05;3.90;;;2.47;;
13943;SDS011;7044;53.286;8.534;2023-01-08T02:13:37;2.90;;;2.60;;
13943;SDS011;7044;53.286;8.534;2023-01-08T02:16:09;7.90;;;2.55;;
13943;SDS011;7044;53.286;8.534;2023-01-08T02:18:43;3.15;;;2.70;;
13943;SDS011;7044;53.286;8.534;2023-01-08T02:21:13;4.22;;;2.97;;
13943;SDS011;7044;53.286;8.534;2023-01-08T02:23:45;4.47;;;2.75;;
13943;SDS011;7044;53.286;8.534;2023-01-08T02:26:21;3.83;;;3.10;;
13943;SDS011;7044;53.286;8.534;2023-01-08T02:28:52;4.13;;;2.50;;
13943;SDS011;7044;53.286;8.534;2023-01-08T02:31:23;2.80;;;2.60;;
13943;SDS011;7044;53.286;8.534;2023-01-08T02:33:51;3.15;;;2.58;;
13943;SDS011;7044;53.286;8.534;2023-01-08T02:36:26;5.32;;;3.20;;
13943;SDS011;7044;53.286;8.534;2023-01-08T02:39:03;3.03;;;2.63;;
13943;SDS011;7044;53.286;8.534;2023-01-08T02:41:42;3.83;;;2.75;;
13943;SDS011;7044;53.286;8.534;2023-01-08T02:44:19;3.05;;;2.75;;
13943;SDS011;7044;53.286;8.534;2023-01-08T02:46:51;3.72;;;2.75;;
13943;SDS011;7044;53.286;8.534;2023-01-08T02:49:19;3.47;;;2.42;;
13943;SDS011;7044;53.286;8.534;2023-01-08T02:51:49;3.67;;;2.63;;
13943;SDS011;7044;53.286;8.534;2023-01-08T02:54:20;3.47;;;2.58;;
13943;SDS011;7044;53.286;8.534;2023-01-08T02:56:52;5.53;;;2.60;;
13943;SDS011;7044;53.286;8.534;2023-01-08T02:59:23;3.80;;;2.70;;
13943;SDS011;7044;53.286;8.534;2023-01-08T03:01:51;4.00;;;2.60;;
13943;SDS011;7044;53.286;8.534;2023-01-08T03:04:20;3.00;;;2.70;;
13943;SDS011;7044;53.286;8.534;2023-01-08T03:06:49;3.20;;;2.85;;
13943;SDS011;7044;53.286;8.534;2023-01-08T03:09:16;3.53;;;2.72;;
13943;SDS011;7044;53.286;8.534;2023-01-08T03:11:45;5.63;;;3.13;;
13943;SDS011;7044;53.286;8.534;2023-01-08T03:14:21;3.38;;;2.65;;
13943;SDS011;7044;53.286;8.534;2023-01-08T03:16:51;5.85;;;3.15;;
13943;SDS011;7044;53.286;8.534;2023-01-08T03:19:22;4.38;;;3.00;;
13943;SDS011;7044;53.286;8.534;2023-01-08T03:21:51;4.05;;;3.00;;
13943;SDS011;7044;53.286;8.534;2023-01-08T03:24:20;4.97;;;3.15;;
13943;SDS011;7044;53.286;8.534;2023-01-08T03:26:51;6.57;;;3.00;;
13943;SDS011;7044;53.286;8.534;2023-01-08T03:29:22;3.72;;;2.83;;
13943;SDS011;7044;53.286;8.534;2023-01-08T03:31:50;3.45;;;2.60;;
13943;SDS011;7044;53.286;8.534;2023-01-08T03:34:21;2.95;;;2.67;;
13943;SDS011;7044;53.286;8.534;2023-01-08T03:36:51;3.33;;;2.75;;
13943;SDS011;7044;53.286;8.534;2023-01-08T03:39:20;3.45;;;3.15;;
13943;SDS011;7044;53.286;8.534;2023-01-08T03:41:49;6.50;;;2.88;;
13943;SDS011;7044;53.286;8.534;2023-01-08T03:44:19;3.95;;;3.22;;
13943;SDS011;7044;53.286;8.534;2023-01-08T03:46:48;4.82;;;3.53;;
13943;SDS011;7044;53.286;8.534;2023-01-08T03:49:17;3.33;;;2.72;;
13943;SDS011;7044;53.286;8.534;2023-01-08T03:51:46;5.65;;;3.08;;
13943;SDS011;7044;53.286;8.534;2023-01-08T03:54:14;5.18;;;3.33;;
13943;SDS011;7044;53.286;8.534;2023-01-08T03:56:42;3.38;;;2.72;;
13943;SDS011;7044;53.286;8.534;2023-01-08T03:59:10;3.10;;;2.80;;
13943;SDS011;7044;53.286;8.534;2023-01-08T04:01:37;3.35;;;3.00;;
13943;SDS011;7044;53.286;8.534;2023-01-08T04:04:06;4.13;;;3.30;;
13943;SDS011;7044;53.286;8.534;2023-01-08T04:06:34;3.45;;;3.13;;
13943;SDS011;7044;53.286;8.534;2023-01-08T04:09:01;3.40;;;2.90;;
13943;SDS011;7044;53.286;8.534;2023-01-08T04:11:27;3.45;;;2.90;;
13943;SDS011;7044;53.286;8.534;2023-01-08T04:13:54;3.83;;;3.00;;
13943;SDS011;7044;53.286;8.534;2023-01-08T04:16:21;3.10;;;2.75;;
13943;SDS011;7044;53.286;8.534;2023-01-08T04:18:48;3.13;;;2.65;;
13943;SDS011;7044;53.286;8.534;2023-01-08T04:21:17;5.85;;;3.30;;
13943;SDS011;7044;53.286;8.534;2023-01-08T04:23:44;3.10;;;2.80;;
13943;SDS011;7044;53.286;8.534;2023-01-08T04:26:10;3.70;;;2.83;;
13943;SDS011;7044;53.286;8.534;2023-01-08T04:28:37;3.03;;;2.70;;
13943;SDS011;7044;53.286;8.534;2023-01-08T04:31:04;4.65;;;2.78;;
13943;SDS011;7044;53.286;8.534;2023-01-08T04:33:32;3.10;;;2.58;;
13943;SDS011;7044;53.286;8.534;2023-01-08T04:35:59;3.65;;;2.88;;
13943;SDS011;7044;53.286;8.534;2023-01-08T04:38:27;5.40;;;2.95;;
13943;SDS011;7044;53.286;8.534;2023-01-08T04:40:55;3.22;;;2.92;;
13943;SDS011;7044;53.286;8.534;2023-01-08T04:43:22;2.80;;;2.38;;
13943;SDS011;7044;53.286;8.534;2023-01-08T04:45:50;4.50;;;2.38;;
13943;SDS011;7044;53.286;8.534;2023-01-08T04:48:16;5.32;;;3.03;;
13943;SDS011;7044;53.286;8.534;2023-01-08T04:50:43;3.78;;;2.95;;
13943;SDS011;7044;53.286;8.534;2023-01-08T04:53:10;2.83;;;2.45;;
13943;SDS011;7044;53.286;8.534;2023-01-08T04:55:38;3.80;;;2.42;;
13943;SDS011;7044;53.286;8.534;2023-01-08T04:58:05;5.53;;;2.95;;
13943;SDS011;7044;53.286;8.534;2023-01-08T05:00:32;4.05;;;2.75;;
13943;SDS011;7044;53.286;8.534;2023-01-08T05:02:59;4.68;;;2.50;;
13943;SDS011;7044;53.286;8.534;2023-01-08T05:05:26;3.28;;;2.50;;
13943;SDS011;7044;53.286;8.534;2023-01-08T05:07:53;3.60;;;2.65;;
13943;SDS011;7044;53.286;8.534;2023-01-08T05:10:20;3.33;;;2.55;;
13943;SDS011;7044;53.286;8.534;2023-01-08T05:12:48;3.33;;;2.55;;
13943;SDS011;7044;53.286;8.534;2023-01-08T05:15:15;4.00;;;2.40;;
13943;SDS011;7044;53.286;8.534;2023-01-08T05:17:42;4.15;;;2.80;;
13943;SDS011;7044;53.286;8.534;2023-01-08T05:20:09;3.70;;;2.83;;
13943;SDS011;7044;53.286;8.534;2023-01-08T05:22:36;6.40;;;2.75;;
13943;SDS011;7044;53.286;8.534;2023-01-08T05:25:03;3.80;;;2.60;;
13943;SDS011;7044;53.286;8.534;2023-01-08T05:27:31;6.05;;;2.65;;
13943;SDS011;7044;53.286;8.534;2023-01-08T05:29:59;3.40;;;2.50;;
13943;SDS011;7044;53.286;8.534;2023-01-08T05:32:26;3.30;;;2.50;;
13943;SDS011;7044;53.286;8.534;2023-01-08T05:34:53;2.65;;;2.45;;
13943;SDS011;7044;53.286;8.534;2023-01-08T05:37:19;3.38;;;2.30;;
13943;SDS011;7044;53.286;8.534;2023-01-08T05:39:46;3.00;;;2.60;;
13943;SDS011;7044;53.286;8.534;2023-01-08T05:42:13;3.38;;;2.35;;
13943;SDS011;7044;53.286;8.534;2023-01-08T05:44:40;3.80;;;2.67;;
13943;SDS011;7044;53.286;8.534;2023-01-08T05:47:08;4.20;;;2.80;;
13943;SDS011;7044;53.286;8.534;2023-01-08T05:49:35;3.60;;;2.38;;
13943;SDS011;7044;53.286;8.534;2023-01-08T05:52:02;2.97;;;2.65;;
13943;SDS011;7044;53.286;8.534;2023-01-08T05:54:29;2.65;;;2.35;;
13943;SDS011;7044;53.286;8.534;2023-01-08T05:56:56;3.10;;;2.63;;
13943;SDS011;7044;53.286;8.534;2023-01-08T05:59:23;2.80;;;2.30;;
13943;SDS011;7044;53.286;8.534;2023-01-08T06:01:50;3.45;;;2.38;;
13943;SDS011;7044;53.286;8.534;2023-01-08T06:04:18;3.35;;;2.60;;
13943;SDS011;7044;53.286;8.534;2023-01-08T06:06:45;4.80;;;2.45;;
13943;SDS011;7044;53.286;8.534;2023-01-08T06:09:12;3.78;;;2.45;;
13943;SDS011;7044;53.286;8.534;2023-01-08T06:11:39;3.63;;;2.35;;
13943;SDS011;7044;53.286;8.534;2023-01-08T06:14:05;2.47;;;2.20;;
13943;SDS011;7044;53.286;8.534;2023-01-08T06:16:32;15.10;;;2.58;;
13943;SDS011;7044;53.286;8.534;2023-01-08T06:18:59;2.30;;;2.10;;
13943;SDS011;7044;53.286;8.534;2023-01-08T06:21:27;3.42;;;2.22;;
13943;SDS011;7044;53.286;8.534;2023-01-08T06:23:54;3.50;;;2.38;;
13943;SDS011;7044;53.286;8.534;2023-01-08T06:26:21;4.55;;;2.47;;
13943;SDS011;7044;53.286;8.534;2023-01-08T06:28:48;4.68;;;2.63;;
13943;SDS011;7044;53.286;8.534;2023-01-08T06:31:15;3.00;;;2.30;;
13943;SDS011;7044;53.286;8.534;2023-01-08T06:33:41;4.35;;;2.60;;
13943;SDS011;7044;53.286;8.534;2023-01-08T06:36:08;8.10;;;2.55;;
13943;SDS011;7044;53.286;8.534;2023-01-08T06:38:37;3.22;;;2.70;;
13943;SDS011;7044;53.286;8.534;2023-01-08T06:41:04;2.85;;;2.28;;
13943;SDS011;7044;53.286;8.534;2023-01-08T06:43:32;5.85;;;2.65;;
13943;SDS011;7044;53.286;8.534;2023-01-08T06:46:00;3.33;;;2.50;;
13943;SDS011;7044;53.286;8.534;2023-01-08T06:48:26;3.58;;;2.60;;
13943;SDS011;7044;53.286;8.534;2023-01-08T06:50:53;3.33;;;2.50;;
13943;SDS011;7044;53.286;8.534;2023-01-08T06:53:21;3.42;;;2.78;;
13943;SDS011;7044;53.286;8.534;2023-01-08T06:55:50;4.38;;;2.78;;
13943;SDS011;7044;53.286;8.534;2023-01-08T06:58:22;4.85;;;2.33;;
13943;SDS011;7044;53.286;8.534;2023-01-08T07:00:49;3.42;;;2.47;;
13943;SDS011;7044;53.286;8.534;2023-01-08T07:03:16;4.82;;;2.63;;
13943;SDS011;7044;53.286;8.534;2023-01-08T07:05:43;3.63;;;2.65;;
13943;SDS011;7044;53.286;8.534;2023-01-08T07:08:10;3.95;;;2.42;;
13943;SDS011;7044;53.286;8.534;2023-01-08T07:10:38;3.95;;;2.63;;
13943;SDS011;7044;53.286;8.534;2023-01-08T07:13:07;5.50;;;2.63;;
13943;SDS011;7044;53.286;8.534;2023-01-08T07:15:34;5.60;;;2.90;;
13943;SDS011;7044;53.286;8.534;2023-01-08T07:18:02;4.70;;;2.72;;
13943;SDS011;7044;53.286;8.534;2023-01-08T07:20:31;4.55;;;2.70;;
13943;SDS011;7044;53.286;8.534;2023-01-08T07:22:59;2.38;;;2.17;;
13943;SDS011;7044;53.286;8.534;2023-01-08T07:25:27;4.82;;;2.42;;
13943;SDS011;7044;53.286;8.534;2023-01-08T07:27:54;3.40;;;2.58;;
13943;SDS011;7044;53.286;8.534;2023-01-08T07:30:22;2.97;;;2.45;;
13943;SDS011;7044;53.286;8.534;2023-01-08T07:32:49;3.35;;;2.40;;
13943;SDS011;7044;53.286;8.534;2023-01-08T07:35:16;3.05;;;2.28;;
13943;SDS011;7044;53.286;8.534;2023-01-08T07:37:43;3.65;;;2.75;;
13943;SDS011;7044;53.286;8.534;2023-01-08T07:40:10;2.95;;;2.40;;
13943;SDS011;7044;53.286;8.534;2023-01-08T07:42:37;3.88;;;2.42;;
13943;SDS011;7044;53.286;8.534;2023-01-08T07:45:04;5.18;;;2.28;;
13943;SDS011;7044;53.286;8.534;2023-01-08T07:47:34;3.28;;;2.33;;
13943;SDS011;7044;53.286;8.534;2023-01-08T07:50:00;3.13;;;2.42;;
13943;SDS011;7044;53.286;8.534;2023-01-08T07:52:27;3.55;;;2.65;;
13943;SDS011;7044;53.286;8.534;2023-01-08T07:54:55;3.60;;;2.50;;
13943;SDS011;7044;53.286;8.534;2023-01-08T07:57:21;4.28;;;2.10;;
13943;SDS011;7044;53.286;8.534;2023-01-08T07:59:48;2.60;;;2.40;;
13943;SDS011;7044;53.286;8.534;2023-01-08T08:02:15;3.55;;;2.53;;
13943;SDS011;7044;53.286;8.534;2023-01-08T08:04:43;5.00;;;2.65;;
13943;SDS011;7044;53.286;8.534;2023-01-08T08:07:10;6.25;;;2.97;;
13943;SDS011;7044;53.286;8.534;2023-01-08T08:09:37;5.38;;;2.78;;
13943;SDS011;7044;53.286;8.534;2023-01-08T08:12:04;2.30;;;2.03;;
13943;SDS011;7044;53.286;8.534;2023-01-08T08:14:31;4.15;;;2.42;;
13943;SDS011;7044;53.286;8.534;2023-01-08T08:16:59;3.03;;;2.33;;
13943;SDS011;7044;53.286;8.534;2023-01-08T08:19:26;4.05;;;2.55;;
13943;SDS011;7044;53.286;8.534;2023-01-08T08:21:54;3.75;;;2.42;;
13943;SDS011;7044;53.286;8.534;2023-01-08T08:24:21;2.67;;;2.47;;
13943;SDS011;7044;53.286;8.534;2023-01-08T08:26:47;3.70;;;2.38;;
13943;SDS011;7044;53.286;8.534;2023-01-08T08:29:18;3.83;;;2.08;;
13943;SDS011;7044;53.286;8.534;2023-01-08T08:31:48;3.47;;;2.10;;
13943;SDS011;7044;53.286;8.534;2023-01-08T08:34:14;2.42;;;2.20;;
13943;SDS011;7044;53.286;8.534;2023-01-08T08:36:41;4.20;;;2.35;;
13943;SDS011;7044;53.286;8.534;2023-01-08T08:39:09;5.40;;;2.35;;
13943;SDS011;7044;53.286;8.534;2023-01-08T08:41:36;2.90;;;2.25;;
13943;SDS011;7044;53.286;8.534;2023-01-08T08:44:03;2.30;;;1.80;;
13943;SDS011;7044;53.286;8.534;2023-01-08T08:46:30;3.08;;;2.00;;
13943;SDS011;7044;53.286;8.534;2023-01-08T08:48:57;2.95;;;1.95;;
13943;SDS011;7044;53.286;8.534;2023-01-08T08:51:24;1.95;;;1.73;;
13943;SDS011;7044;53.286;8.534;2023-01-08T08:53:51;2.25;;;1.90;;
13943;SDS011;7044;53.286;8.534;2023-01-08T08:56:19;5.43;;;2.08;;
13943;SDS011;7044;53.286;8.534;2023-01-08T08:58:46;2.53;;;1.90;;
13943;SDS011;7044;53.286;8.534;2023-01-08T09:01:14;3.05;;;1.98;;
13943;SDS011;7044;53.286;8.534;2023-01-08T09:03:41;2.63;;;1.88;;
13943;SDS011;7044;53.286;8.534;2023-01-08T09:06:11;3.13;;;2.25;;
13943;SDS011;7044;53.286;8.534;2023-01-08T09:08:38;3.53;;;2.08;;
13943;SDS011;7044;53.286;8.534;2023-01-08T09:11:05;3.97;;;1.85;;
13943;SDS011;7044;53.286;8.534;2023-01-08T09:13:34;3.92;;;2.28;;
13943;SDS011;7044;53.286;8.534;2023-01-08T09:16:02;4.20;;;2.00;;
13943;SDS011;7044;53.286;8.534;2023-01-08T09:18:29;3.00;;;1.88;;
13943;SDS011;7044;53.286;8.534;2023-01-08T09:20:55;2.53;;;1.80;;
13943;SDS011;7044;53.286;8.534;2023-01-08T09:23:22;2.22;;;1.80;;
13943;SDS011;7044;53.286;8.534;2023-01-08T09:25:49;2.42;;;1.75;;
13943;SDS011;7044;53.286;8.534;2023-01-08T09:28:24;1.83;;;1.45;;
13943;SDS011;7044;53.286;8.534;2023-01-08T09:30:52;2.40;;;1.52;;
13943;SDS011;7044;53.286;8.534;2023-01-08T09:33:19;4.82;;;1.73;;
13943;SDS011;7044;53.286;8.534;2023-01-08T09:35:46;1.92;;;1.58;;
13943;SDS011;7044;53.286;8.534;2023-01-08T09:38:13;2.53;;;1.48;;
13943;SDS011;7044;53.286;8.534;2023-01-08T09:40:41;3.88;;;1.73;;
13943;SDS011;7044;53.286;8.534;2023-01-08T09:43:14;7.22;;;1.63;;
13943;SDS011;7044;53.286;8.534;2023-01-08T09:45:43;3.38;;;1.35;;
13943;SDS011;7044;53.286;8.534;2023-01-08T09:48:16;1.40;;;1.08;;
13943;SDS011;7044;53.286;8.534;2023-01-08T09:50:45;2.83;;;1.23;;
13943;SDS011;7044;53.286;8.534;2023-01-08T09:53:13;2.17;;;1.20;;
13943;SDS011;7044;53.286;8.534;2023-01-08T09:55:42;2.13;;;1.33;;
13943;SDS011;7044;53.286;8.534;2023-01-08T09:58:12;3.47;;;1.48;;
13943;SDS011;7044;53.286;8.534;2023-01-08T10:00:48;1.95;;;1.45;;
13943;SDS011;7044;53.286;8.534;2023-01-08T10:03:17;3.53;;;1.52;;
13943;SDS011;7044;53.286;8.534;2023-01-08T10:05:43;4.00;;;1.80;;
13943;SDS011;7044;53.286;8.534;2023-01-08T10:08:11;2.38;;;1.17;;
13943;SDS011;7044;53.286;8.534;2023-01-08T10:10:39;3.42;;;2.30;;
13943;SDS011;7044;53.286;8.534;2023-01-08T10:13:09;4.85;;;1.38;;
13943;SDS011;7044;53.286;8.534;2023-01-08T10:15:38;2.05;;;1.40;;
13943;SDS011;7044;53.286;8.534;2023-01-08T10:18:06;2.35;;;1.45;;
13943;SDS011;7044;53.286;8.534;2023-01-08T10:20:38;1.35;;;1.25;;
13943;SDS011;7044;53.286;8.534;2023-01-08T10:23:09;3.47;;;2.13;;
13943;SDS011;7044;53.286;8.534;2023-01-08T10:25:49;2.67;;;1.45;;
13943;SDS011;7044;53.286;8.534;2023-01-08T10:28:24;2.53;;;1.50;;
13943;SDS011;7044;53.286;8.534;2023-01-08T10:30:57;2.25;;;1.55;;
13943;SDS011;7044;53.286;8.534;2023-01-08T10:33:29;1.90;;;1.67;;
13943;SDS011;7044;53.286;8.534;2023-01-08T10:36:05;3.97;;;1.60;;
13943;SDS011;7044;53.286;8.534;2023-01-08T10:38:34;3.20;;;1.63;;
13943;SDS011;7044;53.286;8.534;2023-01-08T10:41:07;1.67;;;1.30;;
13943;SDS011;7044;53.286;8.534;2023-01-08T10:43:41;5.80;;;1.60;;
13943;SDS011;7044;53.286;8.534;2023-01-08T10:46:15;1.90;;;1.23;;
13943;SDS011;7044;53.286;8.534;2023-01-08T10:48:48;1.80;;;1.23;;
13943;SDS011;7044;53.286;8.534;2023-01-08T10:51:20;3.55;;;1.30;;
13943;SDS011;7044;53.286;8.534;2023-01-08T10:53:48;4.68;;;1.38;;
13943;SDS011;7044;53.286;8.534;2023-01-08T10:56:19;3.00;;;1.40;;
13943;SDS011;7044;53.286;8.534;2023-01-08T10:58:48;3.00;;;1.30;;
13943;SDS011;7044;53.286;8.534;2023-01-08T11:01:16;2.08;;;1.25;;
13943;SDS011;7044;53.286;8.534;2023-01-08T11:03:47;2.00;;;1.05;;
13943;SDS011;7044;53.286;8.534;2023-01-08T11:06:17;2.53;;;1.20;;
13943;SDS011;7044;53.286;8.534;2023-01-08T11:08:48;4.95;;;1.33;;
13943;SDS011;7044;53.286;8.534;2023-01-08T11:11:16;3.45;;;1.10;;
13943;SDS011;7044;53.286;8.534;2023-01-08T11:13:51;1.55;;;0.85;;
13943;SDS011;7044;53.286;8.534;2023-01-08T11:16:28;3.85;;;1.25;;
13943;SDS011;7044;53.286;8.534;2023-01-08T11:18:57;1.95;;;1.15;;
13943;SDS011;7044;53.286;8.534;2023-01-08T11:21:26;3.40;;;1.52;;
13943;SDS011;7044;53.286;8.534;2023-01-08T11:24:00;2.50;;;1.05;;
13943;SDS011;7044;53.286;8.534;2023-01-08T11:26:36;3.13;;;1.40;;
13943;SDS011;7044;53.286;8.534;2023-01-08T11:29:10;2.33;;;0.90;;
13943;SDS011;7044;53.286;8.534;2023-01-08T11:31:41;1.40;;;1.00;;
13943;SDS011;7044;53.286;8.534;2023-01-08T11:34:12;4.63;;;0.90;;
13943;SDS011;7044;53.286;8.534;2023-01-08T11:36:46;2.78;;;1.08;;
13943;SDS011;7044;53.286;8.534;2023-01-08T11:39:16;5.05;;;1.23;;
13943;SDS011;7044;53.286;8.534;2023-01-08T11:41:49;4.40;;;0.90;;
13943;SDS011;7044;53.286;8.534;2023-01-08T11:44:38;1.65;;;1.00;;
13943;SDS011;7044;53.286;8.534;2023-01-08T11:47:17;5.30;;;1.30;;
13943;SDS011;7044;53.286;8.534;2023-01-08T11:49:58;2.53;;;1.35;;
13943;SDS011;7044;53.286;8.534;2023-01-08T11:52:43;4.80;;;1.60;;
13943;SDS011;7044;53.286;8.534;2023-01-08T11:55:18;3.58;;;1.80;;
13943;SDS011;7044;53.286;8.534;2023-01-08T11:57:59;3.13;;;1.40;;
13943;SDS011;7044;53.286;8.534;2023-01-08T12:00:42;2.47;;;1.80;;
13943;SDS011;7044;53.286;8.534;2023-01-08T12:03:20;1.73;;;1.40;;
13943;SDS011;7044;53.286;8.534;2023-01-08T12:05:58;2.97;;;1.52;;
13943;SDS011;7044;53.286;8.534;2023-01-08T12:08:37;5.53;;;1.40;;
13943;SDS011;7044;53.286;8.534;2023-01-08T12:11:13;2.20;;;1.10;;
13943;SDS011;7044;53.286;8.534;2023-01-08T12:13:52;3.40;;;1.40;;
13943;SDS011;7044;53.286;8.534;2023-01-08T12:16:35;5.45;;;1.50;;
13943;SDS011;7044;53.286;8.534;2023-01-08T12:19:17;1.73;;;1.27;;
13943;SDS011;7044;53.286;8.534;2023-01-08T12:24:50;3.10;;;1.27;;
13943;SDS011;7044;53.286;8.534;2023-01-08T12:27:30;3.78;;;1.15;;
13943;SDS011;7044;53.286;8.534;2023-01-08T12:30:09;4.40;;;1.60;;
13943;SDS011;7044;53.286;8.534;2023-01-08T12:32:42;3.45;;;1.20;;
13943;SDS011;7044;53.286;8.534;2023-01-08T12:35:14;3.72;;;1.10;;
13943;SDS011;7044;53.286;8.534;2023-01-08T12:37:47;3.28;;;1.27;;
13943;SDS011;7044;53.286;8.534;2023-01-08T12:40:19;2.88;;;1.27;;
13943;SDS011;7044;53.286;8.534;2023-01-08T12:42:49;4.55;;;1.40;;
13943;SDS011;7044;53.286;8.534;2023-01-08T12:45:19;2.13;;;0.95;;
13943;SDS011;7044;53.286;8.534;2023-01-08T12:47:51;2.10;;;1.10;;
13943;SDS011;7044;53.286;8.534;2023-01-08T12:53:17;5.32;;;1.85;;
13943;SDS011;7044;53.286;8.534;2023-01-08T12:55:54;3.05;;;1.08;;
13943;SDS011;7044;53.286;8.534;2023-01-08T12:58:29;3.67;;;1.40;;
13943;SDS011;7044;53.286;8.534;2023-01-08T13:01:07;2.78;;;1.05;;
13943;SDS011;7044;53.286;8.534;2023-01-08T13:03:42;4.35;;;1.25;;
13943;SDS011;7044;53.286;8.534;2023-01-08T13:06:10;4.07;;;1.33;;
13943;SDS011;7044;53.286;8.534;2023-01-08T13:08:40;5.72;;;1.63;;
13943;SDS011;7044;53.286;8.534;2023-01-08T13:11:21;7.10;;;1.50;;
13943;SDS011;7044;53.286;8.534;2023-01-08T13:14:00;6.45;;;2.08;;
13943;SDS011;7044;53.286;8.534;2023-01-08T13:16:29;11.57;;;2.78;;
13943;SDS011;7044;53.286;8.534;2023-01-08T13:19:00;7.63;;;1.80;;
13943;SDS011;7044;53.286;8.534;2023-01-08T13:21:33;4.25;;;1.48;;
13943;SDS011;7044;53.286;8.534;2023-01-08T13:24:02;4.45;;;1.40;;
13943;SDS011;7044;53.286;8.534;2023-01-08T13:26:33;4.88;;;1.67;;
13943;SDS011;7044;53.286;8.534;2023-01-08T13:29:05;5.40;;;1.55;;
13943;SDS011;7044;53.286;8.534;2023-01-08T13:31:39;5.80;;;1.55;;
13943;SDS011;7044;53.286;8.534;2023-01-08T13:34:19;7.25;;;1.60;;
13943;SDS011;7044;53.286;8.534;2023-01-08T13:36:55;6.43;;;1.77;;
13943;SDS011;7044;53.286;8.534;2023-01-08T13:39:30;9.38;;;1.40;;
13943;SDS011;7044;53.286;8.534;2023-01-08T13:42:00;4.18;;;1.63;;
13943;SDS011;7044;53.286;8.534;2023-01-08T13:44:47;6.05;;;1.75;;
13943;SDS011;7044;53.286;8.534;2023-01-08T13:47:17;6.18;;;2.40;;
13943;SDS011;7044;53.286;8.534;2023-01-08T13:49:48;8.88;;;2.35;;
13943;SDS011;7044;53.286;8.534;2023-01-08T13:55:13;3.85;;;1.75;;
13943;SDS011;7044;53.286;8.534;2023-01-08T13:57:44;6.63;;;2.20;;
13943;SDS011;7044;53.286;8.534;2023-01-08T14:00:17;5.53;;;1.90;;
13943;SDS011;7044;53.286;8.534;2023-01-08T14:02:48;7.25;;;2.15;;
13943;SDS011;7044;53.286;8.534;2023-01-08T14:05:18;9.02;;;2.40;;
13943;SDS011;7044;53.286;8.534;2023-01-08T14:07:47;8.50;;;2.20;;
13943;SDS011;7044;53.286;8.534;2023-01-08T14:10:15;5.03;;;1.48;;
13943;SDS011;7044;53.286;8.534;2023-01-08T14:12:44;4.20;;;1.38;;
13943;SDS011;7044;53.286;8.534;2023-01-08T14:15:18;11.70;;;1.85;;
13943;SDS011;7044;53.286;8.534;2023-01-08T14:17:53;11.23;;;2.08;;
13943;SDS011;7044;53.286;8.534;2023-01-08T14:20:30;7.60;;;2.80;;
13943;SDS011;7044;53.286;8.534;2023-01-08T14:22:59;5.88;;;2.28;;
13943;SDS011;7044;53.286;8.534;2023-01-08T14:25:28;6.13;;;1.67;;
13943;SDS011;7044;53.286;8.534;2023-01-08T14:27:58;5.57;;;1.85;;
13943;SDS011;7044;53.286;8.534;2023-01-08T14:30:26;8.35;;;2.88;;
13943;SDS011;7044;53.286;8.534;2023-01-08T14:32:54;13.88;;;2.70;;
13943;SDS011;7044;53.286;8.534;2023-01-08T14:35:25;9.02;;;1.60;;
13943;SDS011;7044;53.286;8.534;2023-01-08T14:37:56;4.80;;;2.53;;
13943;SDS011;7044;53.286;8.534;2023-01-08T14:40:27;7.07;;;2.10;;
13943;SDS011;7044;53.286;8.534;2023-01-08T14:42:58;6.22;;;2.15;;
13943;SDS011;7044;53.286;8.534;2023-01-08T14:45:29;7.10;;;1.90;;
13943;SDS011;7044;53.286;8.534;2023-01-08T14:47:58;8.43;;;2.53;;
13943;SDS011;7044;53.286;8.534;2023-01-08T14:50:33;8.23;;;2.38;;
13943;SDS011;7044;53.286;8.534;2023-01-08T14:53:03;5.68;;;1.90;;
13943;SDS011;7044;53.286;8.534;2023-01-08T14:55:32;6.50;;;1.92;;
13943;SDS011;7044;53.286;8.534;2023-01-08T14:58:03;4.65;;;1.58;;
13943;SDS011;7044;53.286;8.534;2023-01-08T15:00:40;5.38;;;1.85;;
13943;SDS011;7044;53.286;8.534;2023-01-08T15:03:19;3.28;;;1.38;;
13943;SDS011;7044;53.286;8.534;2023-01-08T15:05:53;4.97;;;1.92;;
13943;SDS011;7044;53.286;8.534;2023-01-08T15:08:21;9.85;;;2.15;;
13943;SDS011;7044;53.286;8.534;2023-01-08T15:10:56;9.27;;;1.50;;
13943;SDS011;7044;53.286;8.534;2023-01-08T15:13:28;6.80;;;1.80;;
13943;SDS011;7044;53.286;8.534;2023-01-08T15:15:57;8.65;;;2.15;;
13943;SDS011;7044;53.286;8.534;2023-01-08T15:18:27;8.43;;;2.22;;
13943;SDS011;7044;53.286;8.534;2023-01-08T15:20:54;6.15;;;2.10;;
13943;SDS011;7044;53.286;8.534;2023-01-08T15:23:23;5.95;;;1.67;;